CA-0340 weather

CLOSED Sikanni Chief Airport
British Columbia, Canada

Public forecast

Using degrees Celsius for public forecast. Weather courtesy of forecast.io.

Closest aviation weather report (METAR) to Sikanni Chief Airport

Closest report is Fort St John Airport, 79.6 nm (147.5 km) SE. Retrieved 2019/10/15 18:42 UTC (0 seconds ago):

CYXJ 151842Z 12015KT 15SM BKN006 OVC048 01/M00 A2974 RMK SF5SC3 SLP104

Closest aviation forecast (TAF) to Sikanni Chief Airport

Closest forecast is Fort St John Airport, 79.6 nm (147.5 km) SE. Retrieved 2019/10/15 19:48 UTC (0 seconds ago):

TAF CYXJ 151845Z 1519/1607 12012KT P6SM -SN BKN006 OVC040 TEMPO 1519/1521 5SM -RA BR SCT008 OVC030 FM152100 15010KT P6SM -RA SCT006 OVC025 TEMPO 1521/1604 5SM -RA BR BKN006 OVC025 FM160400 17010KT P6SM FEW010 SCT040 TEMPO 1604/1607 4SM -RA BR BKN010 OVC030 RMK NXT FCST BY 160100Z